createdAt,value
2018-09-21T00:01:36.920Z,56.54
2018-09-21T00:04:10.653Z,55.99
2018-09-21T00:06:40.346Z,56.39
2018-09-21T00:09:10.914Z,57.25
2018-09-21T00:11:40.046Z,57.18
2018-09-21T00:14:09.411Z,57.29
2018-09-21T00:16:38.851Z,56.20
2018-09-21T00:19:07.600Z,56.70
2018-09-21T00:21:36.279Z,56.54
2018-09-21T00:24:05.329Z,57.12
2018-09-21T00:26:34.043Z,56.84
2018-09-21T00:29:03.082Z,57.06
2018-09-21T00:31:31.808Z,57.32
2018-09-21T00:34:00.578Z,56.66
2018-09-21T00:36:29.704Z,56.95
2018-09-21T00:38:58.441Z,57.34
2018-09-21T00:41:27.172Z,57.43
2018-09-21T00:43:56.256Z,57.41
2018-09-21T00:46:25.779Z,57.37
2018-09-21T00:48:54.966Z,56.94
2018-09-21T00:51:23.784Z,56.79
2018-09-21T00:53:52.711Z,56.96
2018-09-21T00:56:21.466Z,57.72
2018-09-21T00:58:50.417Z,57.29
2018-09-21T01:01:19.753Z,57.62
2018-09-21T01:03:48.987Z,57.74
2018-09-21T01:06:18.166Z,57.31
2018-09-21T01:08:47.251Z,56.03
2018-09-21T01:11:16.044Z,56.75
2018-09-21T01:13:45.214Z,56.78
2018-09-21T01:16:14.279Z,57.08
2018-09-21T01:18:43.124Z,56.32
2018-09-21T01:21:12.191Z,57.32
2018-09-21T01:23:40.919Z,57.71
2018-09-21T01:26:10.070Z,58.04
2018-09-21T01:28:38.935Z,57.79
2018-09-21T01:31:07.699Z,57.70
2018-09-21T01:33:36.460Z,57.30
2018-09-21T01:36:05.321Z,58.00
2018-09-21T01:38:34.157Z,57.84
2018-09-21T01:41:02.969Z,57.95
2018-09-21T01:43:31.735Z,57.21
2018-09-21T01:46:00.550Z,57.31
2018-09-21T01:48:29.599Z,58.15
2018-09-21T01:50:58.943Z,57.93
2018-09-21T01:53:27.639Z,58.24
2018-09-21T01:55:56.455Z,58.34
2018-09-21T01:58:25.491Z,57.85
2018-09-21T02:00:54.875Z,58.21
2018-09-21T02:03:23.604Z,58.22
2018-09-21T02:05:53.191Z,58.70
2018-09-21T02:08:21.972Z,59.06
2018-09-21T02:10:51.004Z,59.83
2018-09-21T02:13:19.782Z,59.99
2018-09-21T02:15:48.658Z,59.85
2018-09-21T02:18:17.400Z,60.17
2018-09-21T02:20:46.514Z,60.39
2018-09-21T02:23:15.255Z,60.51
2018-09-21T02:25:44.114Z,60.83
2018-09-21T02:28:13.186Z,60.48
2018-09-21T02:30:42.289Z,60.89
2018-09-21T02:33:11.050Z,60.91
2018-09-21T02:35:39.736Z,61.68
2018-09-21T02:38:08.537Z,61.67
2018-09-21T02:40:37.383Z,60.63
2018-09-21T02:43:06.483Z,61.08
2018-09-21T02:45:35.264Z,60.59
2018-09-21T02:48:04.312Z,61.23
2018-09-21T02:50:33.376Z,60.77
2018-09-21T02:53:02.171Z,61.54
2018-09-21T02:55:31.303Z,61.72
2018-09-21T02:58:00.665Z,61.07
2018-09-21T03:00:29.805Z,61.58
2018-09-21T03:02:59.199Z,62.23
2018-09-21T03:05:28.830Z,61.65
2018-09-21T03:07:57.901Z,61.59
2018-09-21T03:10:26.968Z,61.33
2018-09-21T03:12:55.758Z,61.89
2018-09-21T03:15:24.703Z,61.95
2018-09-21T03:17:53.517Z,62.41
2018-09-21T03:20:22.641Z,62.47
2018-09-21T03:22:51.764Z,61.87
2018-09-21T03:25:20.884Z,61.66
2018-09-21T03:27:49.636Z,62.27
2018-09-21T03:30:18.685Z,62.09
2018-09-21T03:32:47.737Z,62.26
2018-09-21T03:35:16.606Z,63.09
2018-09-21T03:37:45.358Z,63.12
2018-09-21T03:40:14.328Z,63.61
2018-09-21T03:42:43.506Z,63.90
2018-09-21T03:45:12.321Z,63.43
2018-09-21T03:47:41.339Z,63.44
2018-09-21T03:50:10.143Z,63.42
2018-09-21T03:52:39.058Z,64.14
2018-09-21T03:55:08.491Z,64.18
2018-09-21T03:57:37.237Z,64.19
2018-09-21T04:00:06.924Z,63.83
2018-09-21T04:02:36.010Z,63.75
2018-09-21T04:05:06.020Z,64.09
2018-09-21T04:07:35.326Z,64.09
2018-09-21T04:10:04.127Z,64.10
2018-09-21T04:12:33.281Z,64.75
2018-09-21T04:15:02.242Z,64.62
2018-09-21T04:17:31.403Z,64.84
2018-09-21T04:20:00.391Z,64.36
2018-09-21T04:22:29.075Z,65.09
2018-09-21T04:24:58.278Z,64.81
2018-09-21T04:27:27.798Z,64.82
2018-09-21T04:29:56.593Z,65.32
2018-09-21T04:32:25.367Z,65.57
2018-09-21T04:34:54.152Z,65.86
2018-09-21T04:37:23.468Z,65.94
2018-09-21T04:39:52.270Z,65.32
2018-09-21T04:42:21.105Z,65.87
2018-09-21T04:44:50.197Z,65.55
2018-09-21T04:47:19.298Z,64.90
2018-09-21T04:49:48.013Z,65.11
2018-09-21T04:52:16.752Z,65.05
2018-09-21T04:54:45.538Z,65.11
2018-09-21T04:57:14.708Z,65.25
2018-09-21T04:59:43.438Z,64.88
2018-09-21T05:02:12.830Z,65.29
2018-09-21T05:04:41.605Z,65.03
2018-09-21T05:07:10.319Z,65.25
2018-09-21T05:09:39.123Z,64.96
2018-09-21T05:12:08.127Z,64.86
2018-09-21T05:14:36.905Z,65.40
2018-09-21T05:17:05.958Z,65.12
2018-09-21T05:19:34.748Z,65.42
2018-09-21T05:22:03.840Z,64.79
2018-09-21T05:24:32.587Z,65.06
2018-09-21T05:27:01.498Z,65.05
2018-09-21T05:29:30.260Z,64.87
2018-09-21T05:31:59.537Z,64.78
2018-09-21T05:34:28.406Z,64.93
2018-09-21T05:36:57.102Z,64.81
2018-09-21T05:39:26.168Z,65.11
2018-09-21T05:41:55.396Z,64.79
2018-09-21T05:44:24.214Z,64.66
2018-09-21T05:46:53.072Z,64.17
2018-09-21T05:49:22.530Z,63.62
2018-09-21T05:51:51.735Z,64.11
2018-09-21T05:54:20.810Z,63.95
2018-09-21T05:56:49.662Z,63.94
2018-09-21T05:59:18.693Z,63.11
2018-09-21T06:01:48.134Z,63.58
2018-09-21T06:04:17.761Z,62.72
2018-09-21T06:06:46.935Z,62.36
2018-09-21T06:09:15.954Z,62.55
2018-09-21T06:11:45.048Z,62.83
2018-09-21T06:14:14.618Z,61.92
2018-09-21T06:16:43.520Z,62.17
2018-09-21T06:19:12.537Z,62.18
2018-09-21T06:21:41.527Z,61.69
2018-09-21T06:24:10.518Z,60.91
2018-09-21T06:26:39.703Z,60.89
2018-09-21T06:29:08.866Z,60.69
2018-09-21T06:31:38.343Z,60.32
2018-09-21T06:34:07.202Z,59.83
2018-09-21T06:36:36.000Z,60.15
2018-09-21T06:39:07.279Z,60.06
2018-09-21T06:41:36.511Z,59.07
2018-09-21T06:44:05.755Z,58.90
2018-09-21T06:46:34.843Z,58.37
2018-09-21T06:49:04.261Z,58.15
2018-09-21T06:51:33.396Z,58.29
2018-09-21T06:54:02.320Z,57.67
2018-09-21T06:56:31.340Z,57.61
2018-09-21T06:59:00.094Z,57.74
2018-09-21T07:01:28.894Z,57.44
2018-09-21T07:03:57.653Z,55.99
2018-09-21T07:06:26.830Z,55.31
2018-09-21T07:08:55.652Z,55.57
2018-09-21T07:11:24.651Z,55.09
2018-09-21T07:13:53.720Z,55.10
2018-09-21T07:16:22.793Z,54.57
2018-09-21T07:18:51.618Z,54.25
2018-09-21T07:21:20.359Z,54.29
2018-09-21T07:23:49.187Z,54.74
2018-09-21T07:26:17.902Z,53.98
2018-09-21T07:28:47.086Z,53.73
2018-09-21T07:31:15.836Z,53.00
2018-09-21T07:33:44.541Z,53.82
2018-09-21T07:36:13.436Z,54.19
2018-09-21T07:38:42.554Z,53.96
2018-09-21T07:41:11.624Z,53.86
2018-09-21T07:43:40.515Z,53.73
2018-09-21T07:46:09.917Z,53.89
2018-09-21T07:48:38.714Z,53.02
2018-09-21T07:51:07.798Z,53.24
2018-09-21T07:53:36.559Z,52.79
2018-09-21T07:56:05.340Z,51.72
2018-09-21T07:58:34.492Z,51.53
2018-09-21T08:01:03.267Z,50.89
2018-09-21T08:03:32.166Z,50.52
2018-09-21T08:06:00.992Z,50.06
2018-09-21T08:08:29.753Z,49.78
2018-09-21T08:10:58.713Z,50.08
2018-09-21T08:13:27.831Z,49.49
2018-09-21T08:15:56.743Z,48.83
2018-09-21T08:18:26.015Z,49.29
2018-09-21T08:20:55.150Z,48.81
2018-09-21T08:23:24.011Z,47.92
2018-09-21T08:25:52.844Z,47.77
2018-09-21T08:28:23.052Z,47.59
2018-09-21T08:30:51.864Z,47.92
2018-09-21T08:33:21.053Z,46.99
2018-09-21T08:35:49.870Z,45.99
2018-09-21T08:38:18.635Z,46.23
2018-09-21T08:40:47.542Z,45.45
2018-09-21T08:43:16.543Z,45.62
2018-09-21T08:45:45.451Z,44.81
2018-09-21T08:48:14.263Z,44.63
2018-09-21T08:50:43.207Z,44.43
2018-09-21T08:53:12.213Z,43.09
2018-09-21T08:55:41.386Z,43.46
2018-09-21T08:58:10.171Z,42.60
2018-09-21T09:00:39.707Z,42.93
2018-09-21T09:03:08.539Z,41.82
2018-09-21T09:05:37.332Z,42.32
2018-09-21T09:08:06.079Z,42.17
2018-09-21T09:10:34.802Z,42.34
2018-09-21T09:13:04.006Z,42.19
2018-09-21T09:15:33.329Z,42.27
2018-09-21T09:18:02.159Z,42.73
2018-09-21T09:20:31.159Z,42.49
2018-09-21T09:23:00.289Z,42.04
2018-09-21T09:25:29.027Z,42.49
2018-09-21T09:27:57.882Z,42.45
2018-09-21T09:30:27.059Z,41.79
2018-09-21T09:32:55.997Z,41.74
2018-09-21T09:35:25.035Z,42.00
2018-09-21T09:37:54.145Z,41.97
2018-09-21T09:40:23.555Z,42.15
2018-09-21T09:42:52.706Z,42.10
2018-09-21T09:45:21.672Z,41.54
2018-09-21T09:47:50.830Z,41.68
2018-09-21T09:50:19.982Z,41.42
2018-09-21T09:52:48.854Z,41.43
2018-09-21T09:55:18.125Z,42.27
2018-09-21T09:57:47.165Z,41.75
2018-09-21T10:00:20.109Z,41.26
2018-09-21T10:02:49.169Z,40.74
2018-09-21T10:05:17.943Z,41.19
2018-09-21T10:07:46.792Z,39.90
2018-09-21T10:10:15.590Z,40.34
2018-09-21T10:12:44.402Z,40.11
2018-09-21T10:15:13.436Z,39.68
2018-09-21T10:17:42.507Z,39.23
2018-09-21T10:20:11.771Z,39.55
2018-09-21T10:22:40.598Z,37.94
2018-09-21T10:25:09.752Z,37.69
2018-09-21T10:27:38.721Z,37.14
2018-09-21T10:30:07.411Z,36.57
2018-09-21T10:32:36.852Z,36.04
2018-09-21T10:35:05.956Z,36.54
2018-09-21T10:37:34.757Z,36.01
2018-09-21T10:40:03.588Z,35.25
2018-09-21T10:42:32.610Z,34.46
2018-09-21T10:45:01.699Z,35.26
2018-09-21T10:47:30.524Z,35.45
2018-09-21T10:49:59.791Z,35.11
2018-09-21T10:52:28.610Z,35.11
2018-09-21T10:54:57.965Z,35.57
2018-09-21T10:57:26.798Z,35.54
2018-09-21T10:59:55.663Z,35.54
2018-09-21T11:02:24.468Z,35.49
2018-09-21T11:04:55.226Z,35.69
2018-09-21T11:07:24.390Z,35.79
2018-09-21T11:09:53.478Z,35.89
2018-09-21T11:12:22.299Z,35.90
2018-09-21T11:14:51.668Z,36.81
2018-09-21T11:17:20.643Z,35.55
2018-09-21T11:19:50.320Z,36.03
2018-09-21T11:22:19.153Z,36.09
2018-09-21T11:24:48.369Z,35.91
2018-09-21T11:27:17.287Z,35.15
2018-09-21T11:29:46.185Z,35.31
2018-09-21T11:32:15.003Z,35.03
2018-09-21T11:34:44.202Z,34.27
2018-09-21T11:37:13.149Z,34.61
2018-09-21T11:39:42.235Z,33.29
2018-09-21T11:42:11.358Z,33.88
2018-09-21T11:44:40.133Z,33.46
2018-09-21T11:47:09.600Z,32.19
2018-09-21T11:49:38.255Z,32.13
2018-09-21T11:52:07.326Z,32.31
2018-09-21T11:54:36.071Z,32.82
2018-09-21T11:57:05.092Z,31.89
2018-09-21T11:59:33.921Z,32.33
2018-09-21T12:02:02.830Z,30.64
2018-09-21T12:04:31.597Z,31.07
2018-09-21T12:07:00.971Z,30.36
2018-09-21T12:09:29.744Z,29.97
2018-09-21T12:11:58.880Z,31.14
2018-09-21T12:14:27.698Z,32.54
2018-09-21T12:16:56.476Z,32.43
2018-09-21T12:19:25.350Z,32.30
2018-09-21T12:21:54.588Z,32.71
2018-09-21T12:24:23.630Z,32.01
2018-09-21T12:26:52.784Z,31.84
2018-09-21T12:29:22.037Z,31.51
2018-09-21T12:31:51.157Z,31.39
2018-09-21T12:34:20.027Z,31.55
2018-09-21T12:36:49.119Z,32.05
2018-09-21T12:39:18.032Z,33.06
2018-09-21T12:41:47.294Z,34.17
2018-09-21T12:44:17.850Z,33.75
2018-09-21T12:46:47.773Z,33.56
2018-09-21T12:49:16.540Z,34.16
2018-09-21T12:51:45.312Z,34.67
2018-09-21T12:54:14.744Z,34.38
2018-09-21T12:56:44.467Z,34.89
2018-09-21T12:59:13.183Z,35.04
2018-09-21T13:01:42.433Z,35.66
2018-09-21T13:04:11.953Z,35.55
2018-09-21T13:06:41.045Z,35.59
2018-09-21T13:09:09.921Z,36.04
2018-09-21T13:11:39.118Z,36.06
2018-09-21T13:14:08.121Z,37.07
2018-09-21T13:16:36.919Z,36.61
2018-09-21T13:19:06.025Z,36.73
2018-09-21T13:21:36.525Z,36.48
2018-09-21T13:24:06.298Z,36.73
2018-09-21T13:26:35.402Z,37.37
2018-09-21T13:29:04.541Z,35.36
2018-09-21T13:31:36.275Z,35.32
2018-09-21T13:34:05.091Z,35.26
2018-09-21T13:36:33.918Z,35.85
2018-09-21T13:39:02.960Z,35.68
2018-09-21T13:41:31.727Z,36.13
2018-09-21T13:44:00.561Z,36.51
2018-09-21T13:46:29.344Z,36.55
2018-09-21T13:48:58.134Z,37.25
2018-09-21T13:51:26.943Z,38.06
2018-09-21T13:53:57.359Z,38.00
2018-09-21T13:56:27.330Z,37.77
2018-09-21T13:58:56.633Z,38.37
2018-09-21T14:01:26.841Z,38.91
2018-09-21T14:03:56.266Z,38.97
2018-09-21T14:06:25.175Z,38.68
2018-09-21T14:08:54.156Z,38.42
2018-09-21T14:11:22.940Z,38.30
2018-09-21T14:13:52.157Z,38.87
2018-09-21T14:16:21.165Z,38.57
2018-09-21T14:18:50.015Z,38.27
2018-09-21T14:21:18.897Z,38.01
2018-09-21T14:23:48.328Z,38.37
2018-09-21T14:26:17.365Z,38.65
2018-09-21T14:28:46.392Z,38.46
2018-09-21T14:31:15.126Z,38.51
2018-09-21T14:33:43.936Z,38.83
2018-09-21T14:36:13.151Z,38.23
2018-09-21T14:38:42.242Z,37.99
2018-09-21T14:41:11.279Z,40.69
2018-09-21T14:43:39.988Z,47.23
2018-09-21T14:46:16.308Z,49.24
2018-09-21T14:48:48.846Z,51.02
2018-09-21T14:51:18.506Z,51.29
2018-09-21T14:53:47.353Z,50.72
2018-09-21T14:56:24.477Z,49.95
2018-09-21T14:59:00.321Z,50.71
2018-09-21T15:01:35.112Z,49.54
2018-09-21T15:04:04.424Z,50.05
2018-09-21T15:06:33.783Z,50.06
2018-09-21T15:09:02.519Z,51.47
2018-09-21T15:11:31.486Z,52.61
2018-09-21T15:14:00.829Z,53.69
2018-09-21T15:16:29.693Z,53.74
2018-09-21T15:18:58.799Z,54.71
2018-09-21T15:21:27.990Z,56.67
2018-09-21T15:23:57.409Z,57.95
2018-09-21T15:26:26.323Z,59.52
2018-09-21T15:28:55.740Z,59.98
2018-09-21T15:31:24.824Z,59.70
2018-09-21T15:33:53.583Z,59.46
2018-09-21T15:36:22.611Z,60.46
2018-09-21T15:38:52.319Z,59.97
2018-09-21T15:41:21.293Z,58.86
2018-09-21T15:43:50.147Z,59.25
2018-09-21T15:46:19.339Z,59.07
2018-09-21T15:48:49.014Z,58.60
2018-09-21T15:51:18.167Z,58.42
2018-09-21T15:53:47.087Z,57.97
2018-09-21T15:56:16.306Z,59.94
2018-09-21T15:58:45.561Z,59.96
2018-09-21T16:01:14.994Z,60.85
2018-09-21T16:03:49.747Z,60.97
2018-09-21T16:06:19.294Z,61.04
2018-09-21T16:08:49.323Z,61.60
2018-09-21T16:11:19.424Z,61.59
2018-09-21T16:13:52.200Z,63.10
2018-09-21T16:16:21.309Z,63.46
2018-09-21T16:18:50.272Z,64.40
2018-09-21T16:21:19.222Z,62.87
2018-09-21T16:23:48.118Z,64.22
2018-09-21T16:26:17.621Z,64.56
2018-09-21T16:28:46.526Z,64.97
2018-09-21T16:31:15.396Z,65.10
2018-09-21T16:33:44.237Z,64.79
2018-09-21T16:36:13.022Z,65.08
2018-09-21T16:38:42.578Z,64.69
2018-09-21T16:41:11.673Z,66.08
2018-09-21T16:43:41.430Z,66.22
2018-09-21T16:46:10.596Z,66.35
2018-09-21T16:48:39.434Z,66.23
2018-09-21T16:51:08.203Z,66.75
2018-09-21T16:53:37.004Z,66.59
2018-09-21T16:56:05.879Z,66.17
2018-09-21T16:58:34.637Z,65.85
2018-09-21T17:01:03.859Z,67.35
2018-09-21T17:03:32.865Z,66.94
2018-09-21T17:06:01.889Z,66.90
2018-09-21T17:08:30.854Z,66.91
2018-09-21T17:10:59.808Z,67.66
2018-09-21T17:13:29.131Z,67.39
2018-09-21T17:15:58.547Z,67.37
2018-09-21T17:18:27.551Z,67.25
2018-09-21T17:20:56.794Z,67.19
2018-09-21T17:23:25.725Z,67.73
2018-09-21T17:25:54.794Z,67.69
2018-09-21T17:28:24.787Z,68.84
2018-09-21T17:30:54.729Z,69.78
2018-09-21T17:33:23.710Z,70.53
2018-09-21T17:35:52.829Z,71.49
2018-09-21T17:38:21.896Z,72.15
2018-09-21T17:40:50.689Z,73.12
2018-09-21T17:43:19.506Z,73.68
2018-09-21T17:45:48.629Z,73.92
2018-09-21T17:48:18.172Z,74.79
2018-09-21T17:50:47.000Z,74.18
2018-09-21T17:53:15.773Z,75.89
2018-09-21T17:55:44.529Z,76.81
2018-09-21T17:58:13.588Z,76.75
2018-09-21T18:00:43.362Z,76.77
2018-09-21T18:03:12.208Z,77.94
2018-09-21T18:05:41.039Z,78.23
2018-09-21T18:08:09.852Z,78.43
2018-09-21T18:10:38.763Z,77.99
2018-09-21T18:13:07.801Z,77.97
2018-09-21T18:15:37.495Z,78.02
2018-09-21T18:18:06.960Z,77.91
2018-09-21T18:20:35.913Z,77.92
2018-09-21T18:23:06.955Z,77.67
2018-09-21T18:25:36.204Z,78.25
2018-09-21T18:28:05.989Z,78.77
2018-09-21T18:30:35.002Z,78.35
2018-09-21T18:33:03.953Z,78.46
2018-09-21T18:35:33.601Z,78.87
2018-09-21T18:38:04.553Z,79.58
2018-09-21T18:40:33.814Z,79.26
2018-09-21T18:43:03.319Z,79.68
2018-09-21T18:45:32.545Z,79.73
2018-09-21T18:48:01.727Z,79.84
2018-09-21T18:50:31.519Z,80.24
2018-09-21T18:53:00.770Z,80.74
2018-09-21T18:55:31.725Z,80.94
2018-09-21T18:58:02.232Z,80.77
2018-09-21T19:00:32.354Z,80.42
2018-09-21T19:03:03.090Z,79.97
2018-09-21T19:05:32.910Z,80.40
2018-09-21T19:08:02.859Z,81.03
2018-09-21T19:10:31.950Z,81.02
2018-09-21T19:13:01.509Z,80.63
2018-09-21T19:15:30.458Z,80.37
2018-09-21T19:17:59.549Z,80.54
2018-09-21T19:20:28.591Z,80.71
2018-09-21T19:22:57.486Z,80.33
2018-09-21T19:25:26.471Z,80.63
2018-09-21T19:27:56.816Z,80.13
2018-09-21T19:30:26.035Z,80.30
2018-09-21T19:32:55.862Z,79.75
2018-09-21T19:35:24.863Z,79.39
2018-09-21T19:37:54.426Z,79.78
2018-09-21T19:40:23.242Z,80.17
2018-09-21T19:42:55.124Z,80.23
2018-09-21T19:45:23.985Z,79.75
2018-09-21T19:47:53.116Z,80.04
2018-09-21T19:50:23.392Z,80.29
2018-09-21T19:52:52.761Z,79.71
2018-09-21T19:55:22.325Z,79.02
2018-09-21T19:57:51.122Z,79.50
2018-09-21T20:00:20.310Z,79.41
2018-09-21T20:02:49.413Z,78.52
2018-09-21T20:05:18.507Z,79.35
2018-09-21T20:07:47.312Z,78.97
2018-09-21T20:10:16.994Z,79.63
2018-09-21T20:12:45.851Z,79.86
2018-09-21T20:15:14.609Z,79.39
2018-09-21T20:17:43.825Z,79.09
2018-09-21T20:20:12.767Z,78.97
2018-09-21T20:22:42.050Z,79.83
2018-09-21T20:25:11.404Z,79.30
2018-09-21T20:27:40.491Z,78.85
2018-09-21T20:30:14.318Z,78.35
2018-09-21T20:32:48.136Z,78.92
2018-09-21T20:35:18.763Z,78.96
2018-09-21T20:37:47.541Z,78.50
2018-09-21T20:40:16.896Z,78.38
2018-09-21T20:42:45.817Z,77.65
2018-09-21T20:45:14.570Z,77.48
2018-09-21T20:47:43.610Z,77.74
2018-09-21T20:50:12.363Z,77.74
2018-09-21T20:52:41.731Z,77.67
2018-09-21T20:55:10.890Z,77.53
2018-09-21T20:57:40.015Z,77.41
2018-09-21T21:00:08.941Z,76.97
2018-09-21T21:02:38.082Z,76.89
2018-09-21T21:05:07.305Z,76.96
2018-09-21T21:07:36.091Z,76.10
2018-09-21T21:10:05.018Z,75.97
2018-09-21T21:12:33.878Z,75.98
2018-09-21T21:15:02.751Z,75.22
2018-09-21T21:17:31.530Z,75.61
2018-09-21T21:20:00.719Z,75.01
2018-09-21T21:22:29.790Z,75.14
2018-09-21T21:24:58.641Z,74.68
2018-09-21T21:27:27.839Z,74.47
2018-09-21T21:29:56.936Z,74.13
2018-09-21T21:32:26.084Z,73.17
2018-09-21T21:34:55.612Z,73.48
2018-09-21T21:37:24.741Z,73.55
2018-09-21T21:39:53.475Z,73.30
2018-09-21T21:42:22.551Z,73.58
2018-09-21T21:44:51.397Z,73.46
2018-09-21T21:47:20.167Z,73.15
2018-09-21T21:49:49.272Z,72.61
2018-09-21T21:52:18.598Z,72.78
2018-09-21T21:54:47.791Z,72.60
2018-09-21T21:57:16.559Z,70.56
2018-09-21T21:59:45.886Z,69.52
2018-09-21T22:02:14.738Z,69.71
2018-09-21T22:04:43.887Z,68.97
2018-09-21T22:07:13.290Z,68.87
2018-09-21T22:09:42.086Z,68.56
2018-09-21T22:12:16.202Z,68.99
2018-09-21T22:14:44.955Z,69.17
2018-09-21T22:17:13.741Z,69.22
2018-09-21T22:19:45.726Z,69.50
2018-09-21T22:22:14.937Z,69.75
2018-09-21T22:24:43.674Z,69.81
2018-09-21T22:27:12.580Z,69.91
2018-09-21T22:29:41.543Z,69.92
2018-09-21T22:32:10.594Z,70.56
2018-09-21T22:34:39.643Z,69.91
2018-09-21T22:37:14.698Z,69.79
2018-09-21T22:39:43.785Z,68.97
2018-09-21T22:42:12.674Z,68.89
2018-09-21T22:44:41.464Z,70.17
2018-09-21T22:47:10.484Z,69.62
2018-09-21T22:49:39.576Z,69.34
2018-09-21T22:52:08.397Z,69.70
2018-09-21T22:54:37.190Z,69.79
2018-09-21T22:57:05.958Z,70.53
2018-09-21T22:59:34.763Z,70.19
2018-09-21T23:02:04.645Z,70.80
2018-09-21T23:04:33.500Z,70.24
2018-09-21T23:07:02.886Z,70.61
2018-09-21T23:09:31.755Z,69.58
2018-09-21T23:12:00.819Z,69.63
2018-09-21T23:14:29.641Z,69.50
2018-09-21T23:16:58.422Z,69.39
2018-09-21T23:19:27.241Z,69.46
2018-09-21T23:21:56.135Z,69.63
2018-09-21T23:24:25.145Z,68.95
2018-09-21T23:26:54.805Z,69.35
2018-09-21T23:29:23.636Z,68.98
2018-09-21T23:31:52.759Z,68.20
2018-09-21T23:34:21.647Z,68.01
2018-09-21T23:36:50.524Z,67.89
2018-09-21T23:39:19.282Z,67.85
2018-09-21T23:41:48.035Z,67.36
2018-09-21T23:44:17.363Z,68.04
2018-09-21T23:46:46.082Z,67.20
2018-09-21T23:49:14.838Z,66.99
2018-09-21T23:51:43.655Z,65.96
2018-09-21T23:54:12.522Z,66.17
2018-09-21T23:56:41.277Z,66.13
2018-09-21T23:59:10.039Z,66.44
